sensor_id;sensor_type;location;lat;lon;timestamp;temperature;humidity
8910;DHT22;4490;49.072;8.804;2023-10-08T00:01:15;17.20;73.70
8910;DHT22;4490;49.072;8.804;2023-10-08T00:03:48;17.10;73.80
8910;DHT22;4490;49.072;8.804;2023-10-08T00:06:15;17.10;74.80
8910;DHT22;4490;49.072;8.804;2023-10-08T00:08:41;17.00;74.00
8910;DHT22;4490;49.072;8.804;2023-10-08T00:11:07;17.00;74.10
8910;DHT22;4490;49.072;8.804;2023-10-08T00:13:35;17.00;74.10
8910;DHT22;4490;49.072;8.804;2023-10-08T00:16:06;16.90;74.20
8910;DHT22;4490;49.072;8.804;2023-10-08T00:18:35;16.90;74.50
8910;DHT22;4490;49.072;8.804;2023-10-08T00:21:01;16.90;75.10
8910;DHT22;4490;49.072;8.804;2023-10-08T00:23:36;16.90;74.20
8910;DHT22;4490;49.072;8.804;2023-10-08T00:26:08;16.90;74.20
8910;DHT22;4490;49.072;8.804;2023-10-08T00:28:34;16.90;74.20
8910;DHT22;4490;49.072;8.804;2023-10-08T00:31:02;16.80;74.20
8910;DHT22;4490;49.072;8.804;2023-10-08T00:33:38;16.80;75.00
8910;DHT22;4490;49.072;8.804;2023-10-08T00:36:05;16.80;74.20
8910;DHT22;4490;49.072;8.804;2023-10-08T00:38:48;16.80;74.20
8910;DHT22;4490;49.072;8.804;2023-10-08T00:41:20;16.80;75.10
8910;DHT22;4490;49.072;8.804;2023-10-08T00:43:54;16.80;74.30
8910;DHT22;4490;49.072;8.804;2023-10-08T00:46:22;16.80;74.20
8910;DHT22;4490;49.072;8.804;2023-10-08T00:48:51;16.80;74.00
8910;DHT22;4490;49.072;8.804;2023-10-08T00:51:21;16.80;73.90
8910;DHT22;4490;49.072;8.804;2023-10-08T00:53:59;16.80;73.90
8910;DHT22;4490;49.072;8.804;2023-10-08T00:56:31;16.80;74.00
8910;DHT22;4490;49.072;8.804;2023-10-08T00:59:16;16.80;74.00
8910;DHT22;4490;49.072;8.804;2023-10-08T01:01:45;16.80;74.00
8910;DHT22;4490;49.072;8.804;2023-10-08T01:04:20;16.80;73.90
8910;DHT22;4490;49.072;8.804;2023-10-08T01:06:53;16.80;74.00
8910;DHT22;4490;49.072;8.804;2023-10-08T01:09:29;16.80;73.80
8910;DHT22;4490;49.072;8.804;2023-10-08T01:12:19;16.90;73.90
8910;DHT22;4490;49.072;8.804;2023-10-08T01:14:49;16.90;73.80
8910;DHT22;4490;49.072;8.804;2023-10-08T01:17:19;16.90;73.60
8910;DHT22;4490;49.072;8.804;2023-10-08T01:19:49;16.90;73.70
8910;DHT22;4490;49.072;8.804;2023-10-08T01:22:33;17.00;73.80
8910;DHT22;4490;49.072;8.804;2023-10-08T01:24:59;17.00;73.70
8910;DHT22;4490;49.072;8.804;2023-10-08T01:27:30;17.10;73.80
8910;DHT22;4490;49.072;8.804;2023-10-08T01:30:00;17.20;73.90
8910;DHT22;4490;49.072;8.804;2023-10-08T01:32:45;17.20;73.80
8910;DHT22;4490;49.072;8.804;2023-10-08T01:35:11;17.20;73.80
8910;DHT22;4490;49.072;8.804;2023-10-08T01:37:50;17.30;73.90
8910;DHT22;4490;49.072;8.804;2023-10-08T01:40:16;17.30;74.00
8910;DHT22;4490;49.072;8.804;2023-10-08T01:42:44;17.30;74.00
8910;DHT22;4490;49.072;8.804;2023-10-08T01:45:09;17.40;74.10
8910;DHT22;4490;49.072;8.804;2023-10-08T01:47:38;17.40;74.00
8910;DHT22;4490;49.072;8.804;2023-10-08T01:50:04;17.40;74.00
8910;DHT22;4490;49.072;8.804;2023-10-08T01:52:49;17.50;74.00
8910;DHT22;4490;49.072;8.804;2023-10-08T01:55:17;17.60;73.80
8910;DHT22;4490;49.072;8.804;2023-10-08T01:57:44;17.60;73.80
8910;DHT22;4490;49.072;8.804;2023-10-08T02:00:10;17.60;73.60
8910;DHT22;4490;49.072;8.804;2023-10-08T02:02:36;17.60;73.60
8910;DHT22;4490;49.072;8.804;2023-10-08T02:05:02;17.70;73.60
8910;DHT22;4490;49.072;8.804;2023-10-08T02:07:29;17.70;73.50
8910;DHT22;4490;49.072;8.804;2023-10-08T02:09:56;17.70;73.40
8910;DHT22;4490;49.072;8.804;2023-10-08T02:12:22;17.70;73.30
8910;DHT22;4490;49.072;8.804;2023-10-08T02:14:48;17.80;73.30
8910;DHT22;4490;49.072;8.804;2023-10-08T02:17:14;17.80;73.20
8910;DHT22;4490;49.072;8.804;2023-10-08T02:19:40;17.80;73.10
8910;DHT22;4490;49.072;8.804;2023-10-08T02:22:07;17.80;72.90
8910;DHT22;4490;49.072;8.804;2023-10-08T02:24:35;17.80;72.90
8910;DHT22;4490;49.072;8.804;2023-10-08T02:27:01;17.80;72.50
8910;DHT22;4490;49.072;8.804;2023-10-08T02:29:29;17.80;72.20
8910;DHT22;4490;49.072;8.804;2023-10-08T02:31:58;17.90;72.30
8910;DHT22;4490;49.072;8.804;2023-10-08T02:34:24;17.90;72.10
8910;DHT22;4490;49.072;8.804;2023-10-08T02:36:50;18.00;72.10
8910;DHT22;4490;49.072;8.804;2023-10-08T02:39:16;18.00;72.00
8910;DHT22;4490;49.072;8.804;2023-10-08T02:41:51;18.00;71.90
8910;DHT22;4490;49.072;8.804;2023-10-08T02:44:18;18.00;71.80
8910;DHT22;4490;49.072;8.804;2023-10-08T02:46:47;18.00;71.70
8910;DHT22;4490;49.072;8.804;2023-10-08T02:49:17;18.00;71.70
8910;DHT22;4490;49.072;8.804;2023-10-08T02:51:47;18.00;71.90
8910;DHT22;4490;49.072;8.804;2023-10-08T02:54:16;18.00;71.80
8910;DHT22;4490;49.072;8.804;2023-10-08T02:56:53;18.00;71.70
8910;DHT22;4490;49.072;8.804;2023-10-08T02:59:23;18.00;71.60
8910;DHT22;4490;49.072;8.804;2023-10-08T03:01:50;18.00;72.30
8910;DHT22;4490;49.072;8.804;2023-10-08T03:04:18;18.00;71.50
8910;DHT22;4490;49.072;8.804;2023-10-08T03:06:48;18.00;71.40
8910;DHT22;4490;49.072;8.804;2023-10-08T03:09:21;18.00;71.30
8910;DHT22;4490;49.072;8.804;2023-10-08T03:11:49;18.00;71.20
8910;DHT22;4490;49.072;8.804;2023-10-08T03:14:18;18.00;71.00
8910;DHT22;4490;49.072;8.804;2023-10-08T03:16:51;18.00;71.00
8910;DHT22;4490;49.072;8.804;2023-10-08T03:19:19;18.00;71.00
8910;DHT22;4490;49.072;8.804;2023-10-08T03:21:48;18.00;71.00
8910;DHT22;4490;49.072;8.804;2023-10-08T03:24:17;18.00;70.80
8910;DHT22;4490;49.072;8.804;2023-10-08T03:26:58;17.90;71.40
8910;DHT22;4490;49.072;8.804;2023-10-08T03:29:41;18.00;70.70
8910;DHT22;4490;49.072;8.804;2023-10-08T03:32:08;17.90;70.90
8910;DHT22;4490;49.072;8.804;2023-10-08T03:34:39;17.90;71.60
8910;DHT22;4490;49.072;8.804;2023-10-08T03:37:08;17.90;70.70
8910;DHT22;4490;49.072;8.804;2023-10-08T03:39:34;17.90;70.80
8910;DHT22;4490;49.072;8.804;2023-10-08T03:42:38;17.90;70.80
8910;DHT22;4490;49.072;8.804;2023-10-08T03:45:07;17.90;70.80
8910;DHT22;4490;49.072;8.804;2023-10-08T03:47:38;17.90;70.90
8910;DHT22;4490;49.072;8.804;2023-10-08T03:50:07;17.90;70.90
8910;DHT22;4490;49.072;8.804;2023-10-08T03:52:36;17.90;70.90
8910;DHT22;4490;49.072;8.804;2023-10-08T03:55:07;17.80;70.80
8910;DHT22;4490;49.072;8.804;2023-10-08T03:57:44;17.80;70.80
8910;DHT22;4490;49.072;8.804;2023-10-08T04:00:14;17.80;71.00
8910;DHT22;4490;49.072;8.804;2023-10-08T04:02:43;17.80;70.80
8910;DHT22;4490;49.072;8.804;2023-10-08T04:05:20;17.80;70.70
8910;DHT22;4490;49.072;8.804;2023-10-08T04:07:48;17.80;70.70
8910;DHT22;4490;49.072;8.804;2023-10-08T04:10:37;17.80;70.70
8910;DHT22;4490;49.072;8.804;2023-10-08T04:13:09;17.80;70.70
8910;DHT22;4490;49.072;8.804;2023-10-08T04:15:38;17.80;70.70
8910;DHT22;4490;49.072;8.804;2023-10-08T04:18:11;17.80;70.70
8910;DHT22;4490;49.072;8.804;2023-10-08T04:20:37;17.80;70.60
8910;DHT22;4490;49.072;8.804;2023-10-08T04:23:04;17.80;70.60
8910;DHT22;4490;49.072;8.804;2023-10-08T04:25:31;17.80;70.60
8910;DHT22;4490;49.072;8.804;2023-10-08T04:27:59;17.80;70.50
8910;DHT22;4490;49.072;8.804;2023-10-08T04:30:33;17.80;70.50
8910;DHT22;4490;49.072;8.804;2023-10-08T04:33:03;17.80;70.80
8910;DHT22;4490;49.072;8.804;2023-10-08T04:35:36;17.80;70.80
8910;DHT22;4490;49.072;8.804;2023-10-08T04:38:05;17.80;70.90
8910;DHT22;4490;49.072;8.804;2023-10-08T04:40:35;17.80;71.20
8910;DHT22;4490;49.072;8.804;2023-10-08T04:43:08;17.80;71.30
8910;DHT22;4490;49.072;8.804;2023-10-08T04:45:36;17.70;71.40
8910;DHT22;4490;49.072;8.804;2023-10-08T04:48:04;17.70;71.60
8910;DHT22;4490;49.072;8.804;2023-10-08T04:50:35;17.70;71.80
8910;DHT22;4490;49.072;8.804;2023-10-08T04:53:02;17.70;71.70
8910;DHT22;4490;49.072;8.804;2023-10-08T04:55:36;17.70;71.80
8910;DHT22;4490;49.072;8.804;2023-10-08T04:58:07;17.70;71.70
8910;DHT22;4490;49.072;8.804;2023-10-08T05:00:45;17.70;72.50
8910;DHT22;4490;49.072;8.804;2023-10-08T05:03:20;17.70;71.80
8910;DHT22;4490;49.072;8.804;2023-10-08T05:05:48;17.70;72.60
8910;DHT22;4490;49.072;8.804;2023-10-08T05:08:34;17.70;71.90
8910;DHT22;4490;49.072;8.804;2023-10-08T05:11:32;17.70;71.90
8910;DHT22;4490;49.072;8.804;2023-10-08T05:14:30;17.70;72.00
8910;DHT22;4490;49.072;8.804;2023-10-08T05:17:05;17.70;72.20
8910;DHT22;4490;49.072;8.804;2023-10-08T05:19:43;17.70;73.00
8910;DHT22;4490;49.072;8.804;2023-10-08T05:22:41;17.70;72.30
8910;DHT22;4490;49.072;8.804;2023-10-08T05:25:09;17.70;72.40
8910;DHT22;4490;49.072;8.804;2023-10-08T05:27:43;17.70;72.40
8910;DHT22;4490;49.072;8.804;2023-10-08T05:30:15;17.60;72.40
8910;DHT22;4490;49.072;8.804;2023-10-08T05:33:01;17.60;72.50
8910;DHT22;4490;49.072;8.804;2023-10-08T05:35:41;17.60;72.60
8910;DHT22;4490;49.072;8.804;2023-10-08T05:38:11;17.60;72.80
8910;DHT22;4490;49.072;8.804;2023-10-08T05:40:56;17.60;72.70
8910;DHT22;4490;49.072;8.804;2023-10-08T05:43:40;17.60;72.70
8910;DHT22;4490;49.072;8.804;2023-10-08T05:46:07;17.60;72.70
8910;DHT22;4490;49.072;8.804;2023-10-08T05:48:53;17.60;72.70
8910;DHT22;4490;49.072;8.804;2023-10-08T05:51:38;17.60;72.80
8910;DHT22;4490;49.072;8.804;2023-10-08T05:54:31;17.60;72.90
8910;DHT22;4490;49.072;8.804;2023-10-08T05:57:02;17.60;72.90
8910;DHT22;4490;49.072;8.804;2023-10-08T05:59:41;17.60;73.00
8910;DHT22;4490;49.072;8.804;2023-10-08T06:02:32;17.60;73.00
8910;DHT22;4490;49.072;8.804;2023-10-08T06:04:58;17.60;73.00
8910;DHT22;4490;49.072;8.804;2023-10-08T06:07:45;17.60;72.90
8910;DHT22;4490;49.072;8.804;2023-10-08T06:10:31;17.60;72.70
8910;DHT22;4490;49.072;8.804;2023-10-08T06:13:07;17.60;73.40
8910;DHT22;4490;49.072;8.804;2023-10-08T06:18:11;17.60;72.40
8910;DHT22;4490;49.072;8.804;2023-10-08T06:20:38;17.70;72.50
8910;DHT22;4490;49.072;8.804;2023-10-08T06:23:15;17.70;73.40
8910;DHT22;4490;49.072;8.804;2023-10-08T06:25:44;17.70;72.60
8910;DHT22;4490;49.072;8.804;2023-10-08T06:28:18;17.70;72.70
8910;DHT22;4490;49.072;8.804;2023-10-08T06:30:46;17.80;72.90
8910;DHT22;4490;49.072;8.804;2023-10-08T06:33:11;17.80;72.90
8910;DHT22;4490;49.072;8.804;2023-10-08T06:35:37;17.80;73.00
8910;DHT22;4490;49.072;8.804;2023-10-08T06:38:03;17.80;73.20
8910;DHT22;4490;49.072;8.804;2023-10-08T06:40:40;17.80;73.20
8910;DHT22;4490;49.072;8.804;2023-10-08T06:43:06;17.80;73.20
8910;DHT22;4490;49.072;8.804;2023-10-08T06:45:44;17.80;73.40
8910;DHT22;4490;49.072;8.804;2023-10-08T06:48:10;17.80;73.60
8910;DHT22;4490;49.072;8.804;2023-10-08T06:50:47;17.80;73.70
8910;DHT22;4490;49.072;8.804;2023-10-08T06:53:13;17.80;74.00
8910;DHT22;4490;49.072;8.804;2023-10-08T06:55:44;17.80;74.80
8910;DHT22;4490;49.072;8.804;2023-10-08T06:58:10;17.90;74.10
8910;DHT22;4490;49.072;8.804;2023-10-08T07:00:40;17.90;75.10
8910;DHT22;4490;49.072;8.804;2023-10-08T07:03:12;18.00;74.60
8910;DHT22;4490;49.072;8.804;2023-10-08T07:05:42;18.20;74.50
8910;DHT22;4490;49.072;8.804;2023-10-08T07:08:10;18.40;73.80
8910;DHT22;4490;49.072;8.804;2023-10-08T07:10:39;18.70;73.20
8910;DHT22;4490;49.072;8.804;2023-10-08T07:13:06;18.80;71.50
8910;DHT22;4490;49.072;8.804;2023-10-08T07:15:34;18.90;71.00
8910;DHT22;4490;49.072;8.804;2023-10-08T07:18:06;18.90;71.80
8910;DHT22;4490;49.072;8.804;2023-10-08T07:20:45;18.80;70.60
8910;DHT22;4490;49.072;8.804;2023-10-08T07:23:11;18.80;70.80
8910;DHT22;4490;49.072;8.804;2023-10-08T07:26:03;18.80;71.00
8910;DHT22;4490;49.072;8.804;2023-10-08T07:28:44;18.80;70.70
8910;DHT22;4490;49.072;8.804;2023-10-08T07:33:41;18.90;71.30
8910;DHT22;4490;49.072;8.804;2023-10-08T07:36:10;19.00;70.90
8910;DHT22;4490;49.072;8.804;2023-10-08T07:38:40;19.10;71.00
8910;DHT22;4490;49.072;8.804;2023-10-08T07:41:10;19.20;70.70
8910;DHT22;4490;49.072;8.804;2023-10-08T07:43:45;19.30;70.70
8910;DHT22;4490;49.072;8.804;2023-10-08T07:46:24;19.40;70.30
8910;DHT22;4490;49.072;8.804;2023-10-08T07:48:54;19.40;69.70
8910;DHT22;4490;49.072;8.804;2023-10-08T07:51:20;19.40;70.40
8910;DHT22;4490;49.072;8.804;2023-10-08T07:53:52;19.60;70.10
8910;DHT22;4490;49.072;8.804;2023-10-08T07:56:25;20.00;69.50
8910;DHT22;4490;49.072;8.804;2023-10-08T07:58:52;20.30;68.90
8910;DHT22;4490;49.072;8.804;2023-10-08T08:01:17;20.40;68.10
8910;DHT22;4490;49.072;8.804;2023-10-08T08:03:45;20.50;68.70
8910;DHT22;4490;49.072;8.804;2023-10-08T08:06:14;20.70;68.20
8910;DHT22;4490;49.072;8.804;2023-10-08T08:08:41;21.20;67.90
8910;DHT22;4490;49.072;8.804;2023-10-08T08:11:07;21.60;66.70
8910;DHT22;4490;49.072;8.804;2023-10-08T08:13:43;21.90;66.10
8910;DHT22;4490;49.072;8.804;2023-10-08T08:16:13;22.30;65.00
8910;DHT22;4490;49.072;8.804;2023-10-08T08:18:51;22.60;64.20
8910;DHT22;4490;49.072;8.804;2023-10-08T08:21:23;22.90;63.20
8910;DHT22;4490;49.072;8.804;2023-10-08T08:23:49;23.20;62.70
8910;DHT22;4490;49.072;8.804;2023-10-08T08:26:23;23.50;62.80
8910;DHT22;4490;49.072;8.804;2023-10-08T08:28:55;23.70;61.40
8910;DHT22;4490;49.072;8.804;2023-10-08T08:31:23;23.90;61.10
8910;DHT22;4490;49.072;8.804;2023-10-08T08:33:49;24.10;60.40
8910;DHT22;4490;49.072;8.804;2023-10-08T08:36:19;24.20;60.40
8910;DHT22;4490;49.072;8.804;2023-10-08T08:38:45;24.10;60.00
8910;DHT22;4490;49.072;8.804;2023-10-08T08:41:10;23.90;59.90
8910;DHT22;4490;49.072;8.804;2023-10-08T08:43:38;23.60;60.10
8910;DHT22;4490;49.072;8.804;2023-10-08T08:46:09;23.30;60.30
8910;DHT22;4490;49.072;8.804;2023-10-08T08:48:42;23.10;61.00
8910;DHT22;4490;49.072;8.804;2023-10-08T08:51:10;22.80;61.40
8910;DHT22;4490;49.072;8.804;2023-10-08T08:53:36;22.60;62.10
8910;DHT22;4490;49.072;8.804;2023-10-08T08:56:03;22.40;62.70
8910;DHT22;4490;49.072;8.804;2023-10-08T08:58:33;22.30;63.40
8910;DHT22;4490;49.072;8.804;2023-10-08T09:00:59;22.10;63.90
8910;DHT22;4490;49.072;8.804;2023-10-08T09:03:25;22.00;64.40
8910;DHT22;4490;49.072;8.804;2023-10-08T09:05:59;22.00;64.90
8910;DHT22;4490;49.072;8.804;2023-10-08T09:08:32;21.90;64.90
8910;DHT22;4490;49.072;8.804;2023-10-08T09:10:59;21.90;65.20
8910;DHT22;4490;49.072;8.804;2023-10-08T09:13:31;21.90;65.20
8910;DHT22;4490;49.072;8.804;2023-10-08T09:18:29;21.90;65.70
8910;DHT22;4490;49.072;8.804;2023-10-08T09:21:10;21.90;65.80
8910;DHT22;4490;49.072;8.804;2023-10-08T09:23:39;21.90;65.20
8910;DHT22;4490;49.072;8.804;2023-10-08T09:26:09;21.90;65.80
8910;DHT22;4490;49.072;8.804;2023-10-08T09:28:34;21.80;66.30
8910;DHT22;4490;49.072;8.804;2023-10-08T09:31:04;21.80;65.50
8910;DHT22;4490;49.072;8.804;2023-10-08T09:33:32;21.80;65.60
8910;DHT22;4490;49.072;8.804;2023-10-08T09:35:59;21.70;65.70
8910;DHT22;4490;49.072;8.804;2023-10-08T09:38:30;21.70;66.20
8910;DHT22;4490;49.072;8.804;2023-10-08T09:40:57;21.70;66.70
8910;DHT22;4490;49.072;8.804;2023-10-08T09:43:23;21.70;67.50
8910;DHT22;4490;49.072;8.804;2023-10-08T09:46:20;21.70;67.00
8910;DHT22;4490;49.072;8.804;2023-10-08T09:48:51;21.70;67.00
8910;DHT22;4490;49.072;8.804;2023-10-08T09:51:19;21.60;66.60
8910;DHT22;4490;49.072;8.804;2023-10-08T09:53:52;21.60;66.70
8910;DHT22;4490;49.072;8.804;2023-10-08T09:56:20;21.50;66.60
8910;DHT22;4490;49.072;8.804;2023-10-08T09:58:46;21.50;66.90
8910;DHT22;4490;49.072;8.804;2023-10-08T10:01:15;21.50;67.10
8910;DHT22;4490;49.072;8.804;2023-10-08T10:03:44;21.50;66.90
8910;DHT22;4490;49.072;8.804;2023-10-08T10:06:14;21.50;66.80
8910;DHT22;4490;49.072;8.804;2023-10-08T10:08:45;21.60;67.00
8910;DHT22;4490;49.072;8.804;2023-10-08T10:11:11;21.70;67.10
8910;DHT22;4490;49.072;8.804;2023-10-08T10:13:43;21.70;67.00
8910;DHT22;4490;49.072;8.804;2023-10-08T10:16:18;21.90;67.30
8910;DHT22;4490;49.072;8.804;2023-10-08T10:18:45;22.00;67.70
8910;DHT22;4490;49.072;8.804;2023-10-08T10:23:40;22.60;66.40
8910;DHT22;4490;49.072;8.804;2023-10-08T10:31:49;23.00;66.40
8910;DHT22;4490;49.072;8.804;2023-10-08T10:34:20;23.00;66.80
8910;DHT22;4490;49.072;8.804;2023-10-08T10:36:49;23.10;66.60
8910;DHT22;4490;49.072;8.804;2023-10-08T10:39:17;23.20;66.50
8910;DHT22;4490;49.072;8.804;2023-10-08T10:41:43;23.30;66.90
8910;DHT22;4490;49.072;8.804;2023-10-08T10:44:10;23.40;67.10
8910;DHT22;4490;49.072;8.804;2023-10-08T10:46:36;23.50;66.70
8910;DHT22;4490;49.072;8.804;2023-10-08T10:49:07;23.60;66.60
8910;DHT22;4490;49.072;8.804;2023-10-08T10:51:48;23.70;66.00
8910;DHT22;4490;49.072;8.804;2023-10-08T10:54:19;23.80;66.00
8910;DHT22;4490;49.072;8.804;2023-10-08T10:56:47;24.00;65.90
8910;DHT22;4490;49.072;8.804;2023-10-08T10:59:13;24.20;65.90
8910;DHT22;4490;49.072;8.804;2023-10-08T11:01:48;24.40;65.20
8910;DHT22;4490;49.072;8.804;2023-10-08T11:04:33;24.50;64.70
8910;DHT22;4490;49.072;8.804;2023-10-08T11:07:11;24.80;64.90
8910;DHT22;4490;49.072;8.804;2023-10-08T11:09:38;25.00;64.00
8910;DHT22;4490;49.072;8.804;2023-10-08T11:12:06;25.30;63.20
8910;DHT22;4490;49.072;8.804;2023-10-08T11:14:39;25.60;62.90
8910;DHT22;4490;49.072;8.804;2023-10-08T11:17:22;25.90;62.10
8910;DHT22;4490;49.072;8.804;2023-10-08T11:19:48;26.20;61.50
8910;DHT22;4490;49.072;8.804;2023-10-08T11:22:14;26.40;61.00
8910;DHT22;4490;49.072;8.804;2023-10-08T11:24:45;26.60;59.90
8910;DHT22;4490;49.072;8.804;2023-10-08T11:27:18;26.80;59.90
8910;DHT22;4490;49.072;8.804;2023-10-08T11:29:55;27.00;61.20
8910;DHT22;4490;49.072;8.804;2023-10-08T11:32:26;27.30;60.60
8910;DHT22;4490;49.072;8.804;2023-10-08T11:34:58;27.60;59.60
8910;DHT22;4490;49.072;8.804;2023-10-08T11:37:32;27.80;59.00
8910;DHT22;4490;49.072;8.804;2023-10-08T11:40:01;27.90;58.40
8910;DHT22;4490;49.072;8.804;2023-10-08T11:42:43;27.90;58.20
8910;DHT22;4490;49.072;8.804;2023-10-08T11:45:10;27.90;57.60
8910;DHT22;4490;49.072;8.804;2023-10-08T11:47:58;27.90;57.70
8910;DHT22;4490;49.072;8.804;2023-10-08T11:50:29;28.00;57.10
8910;DHT22;4490;49.072;8.804;2023-10-08T11:53:02;28.00;57.20
8910;DHT22;4490;49.072;8.804;2023-10-08T11:55:35;28.10;56.90
8910;DHT22;4490;49.072;8.804;2023-10-08T11:58:03;28.30;56.70
8910;DHT22;4490;49.072;8.804;2023-10-08T12:00:43;28.40;57.00
8910;DHT22;4490;49.072;8.804;2023-10-08T12:03:14;28.70;56.50
8910;DHT22;4490;49.072;8.804;2023-10-08T12:05:48;29.00;56.10
8910;DHT22;4490;49.072;8.804;2023-10-08T12:08:17;29.10;55.70
8910;DHT22;4490;49.072;8.804;2023-10-08T12:10:44;29.30;55.20
8910;DHT22;4490;49.072;8.804;2023-10-08T12:13:12;29.50;54.60
8910;DHT22;4490;49.072;8.804;2023-10-08T12:15:38;29.60;54.00
8910;DHT22;4490;49.072;8.804;2023-10-08T12:18:04;29.80;53.80
8910;DHT22;4490;49.072;8.804;2023-10-08T12:20:35;29.90;53.90
8910;DHT22;4490;49.072;8.804;2023-10-08T12:23:03;30.00;53.10
8910;DHT22;4490;49.072;8.804;2023-10-08T12:25:29;30.10;52.80
8910;DHT22;4490;49.072;8.804;2023-10-08T12:28:01;30.20;53.00
8910;DHT22;4490;49.072;8.804;2023-10-08T12:30:33;30.30;52.90
8910;DHT22;4490;49.072;8.804;2023-10-08T12:33:07;30.50;51.70
8910;DHT22;4490;49.072;8.804;2023-10-08T12:35:35;30.60;52.60
8910;DHT22;4490;49.072;8.804;2023-10-08T12:38:02;30.80;52.00
8910;DHT22;4490;49.072;8.804;2023-10-08T12:40:28;30.90;51.30
8910;DHT22;4490;49.072;8.804;2023-10-08T12:43:08;31.00;51.20
8910;DHT22;4490;49.072;8.804;2023-10-08T12:45:33;31.10;50.90
8910;DHT22;4490;49.072;8.804;2023-10-08T12:48:02;31.10;50.50
8910;DHT22;4490;49.072;8.804;2023-10-08T12:50:28;31.20;50.50
8910;DHT22;4490;49.072;8.804;2023-10-08T12:53:08;31.30;50.40
8910;DHT22;4490;49.072;8.804;2023-10-08T12:55:34;31.30;50.40
8910;DHT22;4490;49.072;8.804;2023-10-08T12:58:07;31.40;50.10
8910;DHT22;4490;49.072;8.804;2023-10-08T13:00:39;31.30;49.90
8910;DHT22;4490;49.072;8.804;2023-10-08T13:03:07;31.30;50.50
8910;DHT22;4490;49.072;8.804;2023-10-08T13:05:41;31.20;49.60
8910;DHT22;4490;49.072;8.804;2023-10-08T13:08:10;31.10;49.50
8910;DHT22;4490;49.072;8.804;2023-10-08T13:10:39;31.00;49.60
8910;DHT22;4490;49.072;8.804;2023-10-08T13:13:10;30.90;50.00
8910;DHT22;4490;49.072;8.804;2023-10-08T13:15:36;30.80;49.80
8910;DHT22;4490;49.072;8.804;2023-10-08T13:18:02;30.80;50.20
8910;DHT22;4490;49.072;8.804;2023-10-08T13:20:31;30.80;50.10
8910;DHT22;4490;49.072;8.804;2023-10-08T13:23:03;30.90;49.90
8910;DHT22;4490;49.072;8.804;2023-10-08T13:25:31;31.00;50.20
8910;DHT22;4490;49.072;8.804;2023-10-08T13:28:02;31.10;50.50
8910;DHT22;4490;49.072;8.804;2023-10-08T13:30:28;31.10;50.90
8910;DHT22;4490;49.072;8.804;2023-10-08T13:32:53;31.20;50.40
8910;DHT22;4490;49.072;8.804;2023-10-08T13:35:19;31.20;50.50
8910;DHT22;4490;49.072;8.804;2023-10-08T13:37:45;31.20;51.20
8910;DHT22;4490;49.072;8.804;2023-10-08T13:40:14;31.30;51.10
8910;DHT22;4490;49.072;8.804;2023-10-08T13:42:42;31.30;51.40
8910;DHT22;4490;49.072;8.804;2023-10-08T13:45:08;31.40;51.00
8910;DHT22;4490;49.072;8.804;2023-10-08T13:47:34;31.50;50.90
8910;DHT22;4490;49.072;8.804;2023-10-08T13:50:00;31.60;50.40
8910;DHT22;4490;49.072;8.804;2023-10-08T13:52:28;31.70;50.20
8910;DHT22;4490;49.072;8.804;2023-10-08T13:54:55;31.70;50.00
8910;DHT22;4490;49.072;8.804;2023-10-08T13:57:21;31.70;50.50
8910;DHT22;4490;49.072;8.804;2023-10-08T13:59:47;31.70;50.10
8910;DHT22;4490;49.072;8.804;2023-10-08T14:02:14;31.70;50.00
8910;DHT22;4490;49.072;8.804;2023-10-08T14:04:41;31.50;50.50
8910;DHT22;4490;49.072;8.804;2023-10-08T14:07:12;31.30;49.90
8910;DHT22;4490;49.072;8.804;2023-10-08T14:09:42;31.20;50.60
8910;DHT22;4490;49.072;8.804;2023-10-08T14:12:11;31.00;51.10
8910;DHT22;4490;49.072;8.804;2023-10-08T14:14:36;30.80;51.40
8910;DHT22;4490;49.072;8.804;2023-10-08T14:17:07;30.70;51.80
8910;DHT22;4490;49.072;8.804;2023-10-08T14:19:35;30.60;51.70
8910;DHT22;4490;49.072;8.804;2023-10-08T14:22:05;30.50;51.70
8910;DHT22;4490;49.072;8.804;2023-10-08T14:24:34;30.50;52.00
8910;DHT22;4490;49.072;8.804;2023-10-08T14:27:03;30.50;51.80
8910;DHT22;4490;49.072;8.804;2023-10-08T14:29:36;30.50;52.30
8910;DHT22;4490;49.072;8.804;2023-10-08T14:32:04;30.50;52.60
8910;DHT22;4490;49.072;8.804;2023-10-08T14:34:37;30.50;52.80
8910;DHT22;4490;49.072;8.804;2023-10-08T14:37:09;30.50;52.50
8910;DHT22;4490;49.072;8.804;2023-10-08T14:39:54;30.50;52.60
8910;DHT22;4490;49.072;8.804;2023-10-08T14:42:38;30.40;52.70
8910;DHT22;4490;49.072;8.804;2023-10-08T14:45:24;30.40;52.80
8910;DHT22;4490;49.072;8.804;2023-10-08T14:47:56;30.40;53.00
8910;DHT22;4490;49.072;8.804;2023-10-08T14:50:23;30.50;53.00
8910;DHT22;4490;49.072;8.804;2023-10-08T14:52:49;30.40;53.10
8910;DHT22;4490;49.072;8.804;2023-10-08T14:55:15;30.40;52.60
8910;DHT22;4490;49.072;8.804;2023-10-08T14:57:47;30.30;52.70
8910;DHT22;4490;49.072;8.804;2023-10-08T15:00:12;30.30;53.00
8910;DHT22;4490;49.072;8.804;2023-10-08T15:02:39;30.00;52.80
8910;DHT22;4490;49.072;8.804;2023-10-08T15:05:05;29.80;52.80
8910;DHT22;4490;49.072;8.804;2023-10-08T15:07:32;29.60;53.10
8910;DHT22;4490;49.072;8.804;2023-10-08T15:09:58;29.40;53.30
8910;DHT22;4490;49.072;8.804;2023-10-08T15:12:26;29.20;53.80
8910;DHT22;4490;49.072;8.804;2023-10-08T15:14:52;29.00;53.80
8910;DHT22;4490;49.072;8.804;2023-10-08T15:17:18;28.90;54.20
8910;DHT22;4490;49.072;8.804;2023-10-08T15:19:44;28.80;54.30
8910;DHT22;4490;49.072;8.804;2023-10-08T15:22:12;28.70;54.50
8910;DHT22;4490;49.072;8.804;2023-10-08T15:24:37;28.60;55.10
8910;DHT22;4490;49.072;8.804;2023-10-08T15:27:05;28.50;55.50
8910;DHT22;4490;49.072;8.804;2023-10-08T15:29:31;28.40;55.60
8910;DHT22;4490;49.072;8.804;2023-10-08T15:31:59;28.30;55.40
8910;DHT22;4490;49.072;8.804;2023-10-08T15:34:25;28.20;55.70
8910;DHT22;4490;49.072;8.804;2023-10-08T15:36:52;28.10;55.70
8910;DHT22;4490;49.072;8.804;2023-10-08T15:39:18;28.10;55.70
8910;DHT22;4490;49.072;8.804;2023-10-08T15:41:51;28.00;56.00
8910;DHT22;4490;49.072;8.804;2023-10-08T15:44:19;27.90;56.20
8910;DHT22;4490;49.072;8.804;2023-10-08T15:46:49;27.80;56.30
8910;DHT22;4490;49.072;8.804;2023-10-08T15:49:15;27.70;56.80
8910;DHT22;4490;49.072;8.804;2023-10-08T15:51:41;27.60;56.80
8910;DHT22;4490;49.072;8.804;2023-10-08T15:54:07;27.50;57.00
8910;DHT22;4490;49.072;8.804;2023-10-08T15:56:32;27.30;57.00
8910;DHT22;4490;49.072;8.804;2023-10-08T15:58:59;27.20;57.40
8910;DHT22;4490;49.072;8.804;2023-10-08T16:01:25;27.10;58.10
8910;DHT22;4490;49.072;8.804;2023-10-08T16:03:53;27.00;57.90
8910;DHT22;4490;49.072;8.804;2023-10-08T16:06:19;26.80;58.00
8910;DHT22;4490;49.072;8.804;2023-10-08T16:08:45;26.70;58.10
8910;DHT22;4490;49.072;8.804;2023-10-08T16:11:12;26.60;58.70
8910;DHT22;4490;49.072;8.804;2023-10-08T16:13:37;26.40;59.40
8910;DHT22;4490;49.072;8.804;2023-10-08T16:16:05;26.20;60.00
8910;DHT22;4490;49.072;8.804;2023-10-08T16:18:34;26.00;60.70
8910;DHT22;4490;49.072;8.804;2023-10-08T16:20:59;25.80;61.20
8910;DHT22;4490;49.072;8.804;2023-10-08T16:23:25;25.50;61.70
8910;DHT22;4490;49.072;8.804;2023-10-08T16:25:53;25.30;62.20
8910;DHT22;4490;49.072;8.804;2023-10-08T16:28:19;25.20;63.00
8910;DHT22;4490;49.072;8.804;2023-10-08T16:30:45;25.00;63.50
8910;DHT22;4490;49.072;8.804;2023-10-08T16:33:17;24.80;63.80
8910;DHT22;4490;49.072;8.804;2023-10-08T16:35:43;24.60;64.10
8910;DHT22;4490;49.072;8.804;2023-10-08T16:38:12;24.40;64.30
8910;DHT22;4490;49.072;8.804;2023-10-08T16:40:39;24.30;64.70